Quenames — WTU9038 — position and weather

sailwx.info

Track history (hours):
 
Tides and Currents Weather Stations Pressure Air Temp Water Temp Dewpoint Dewpoint Depression Visibility Wind Speed Wind Dir Waves Ship Positions

Quenames

Owner: BOSTON MARINE TRANSPORT INC, EAST BOSTON, MA. More information available from US FCC via Universal Licensing System and Coast Guard Vessel Documentation Center.

Last reported at 2014-Nov-01 10:26 UTC. Time now 2014-Nov-01 13:51 UTC.
Position N 40°36' W 074°12'.

Length 23 m.

Type: Tug. MMSI: 367022790.

Date/timePositionNaut miles runAvg speedWind from/ knotsBaromVisibWave heightAir tempDewpointWater temp
2014-Nov-01 10:26N 40°36' W 074°12'0 0.0
2014-Nov-01 09:29N 40°36' W 074°12'3 1.1
2014-Nov-01 06:27N 40°33' W 074°15'0 0.0
2014-Nov-01 02:26N 40°33' W 074°15'0 0.0
2014-Oct-31 23:28N 40°33' W 074°15'0 0.0
2014-Oct-31 15:30N 40°33' W 074°15'0 0.0
2014-Oct-31 14:24N 40°33' W 074°15'0 0.0
2014-Oct-31 12:32N 40°33' W 074°15'3 0.7
2014-Oct-31 07:33N 40°36' W 074°12'3 2.7
2014-Oct-31 06:33N 40°38' W 074°12'0 0.0
2014-Oct-31 05:33N 40°38' W 074°12'0 0.0
2014-Oct-31 04:33N 40°38' W 074°12'0 0.0
2014-Oct-31 03:33N 40°38' W 074°12'0 0.0
2014-Oct-31 02:33N 40°38' W 074°12'0 0.0
2014-Oct-31 01:33N 40°38' W 074°12'0 0.0
2014-Oct-31 00:08N 40°38' W 074°12'0 0.0
2014-Oct-30 23:31N 40°38' W 074°12'0 0.0
2014-Oct-30 22:33N 40°38' W 074°12'0 0.0
2014-Oct-30 21:33N 40°38' W 074°12'0 0.0
2014-Oct-30 20:33N 40°38' W 074°12'0 0.0
2014-Oct-30 19:33N 40°38' W 074°12'4 2.7
2014-Oct-30 18:07N 40°39' W 074°07'0 0.0
2014-Oct-30 16:30N 40°39' W 074°07'4 4.1
2014-Oct-30 15:33N 40°38' W 074°12'3 1.1
2014-Oct-30 13:12N 40°36' W 074°12'4 6.6
2014-Oct-30 12:33N 40°39' W 074°08'9 8.7
2014-Oct-30 11:33N 40°45' W 074°01'4 0.2
2014-Oct-29 12:32N 40°49' W 073°58'6 5.8
2014-Oct-29 11:33N 40°43' W 074°01'6 5.7
2014-Oct-29 10:33N 40°39' W 074°06'0 0.5
2014-Oct-29 09:33N 40°39' W 074°06'0 0.0
2014-Oct-29 08:33N 40°39' W 074°06'0 0.0
2014-Oct-29 07:33N 40°39' W 074°06'0 0.0
2014-Oct-29 06:33N 40°39' W 074°06'0 0.0
2014-Oct-29 05:33N 40°39' W 074°06'0 0.0
2014-Oct-29 04:33N 40°39' W 074°06'0 0.0
2014-Oct-29 03:33N 40°39' W 074°06'0 0.0
2014-Oct-29 02:33N 40°39' W 074°06'0 0.0
2014-Oct-29 01:33N 40°39' W 074°06'0 0.0
2014-Oct-29 00:33N 40°39' W 074°06'0 0.0
2014-Oct-28 23:32N 40°39' W 074°06'0 0.0
2014-Oct-28 22:33N 40°39' W 074°06'0 0.0
2014-Oct-28 21:33N 40°39' W 074°06'0 0.0
2014-Oct-28 20:33N 40°39' W 074°06'0 0.0
2014-Oct-28 19:33N 40°39' W 074°06'0 0.0
2014-Oct-28 18:33N 40°39' W 074°06'0 0.0
2014-Oct-28 17:22N 40°39' W 074°06'0 0.0
2014-Oct-28 16:33N 40°39' W 074°06'0 0.0
2014-Oct-28 15:33N 40°39' W 074°06'0 0.0
2014-Oct-28 14:33N 40°39' W 074°06'0 0.0
2014-Oct-28 13:33N 40°39' W 074°06'0 0.0
2014-Oct-28 12:33N 40°39' W 074°06'0 0.0
2014-Oct-28 11:33N 40°39' W 074°06'0 0.0
2014-Oct-28 10:32N 40°39' W 074°06'0 0.0
2014-Oct-28 09:32N 40°39' W 074°06'3 2.6
2014-Oct-28 08:34N 40°39' W 074°03'6 6.0
2014-Oct-28 07:33N 40°44' W 074°01'7 7.2
2014-Oct-28 06:33N 40°51' W 073°57'8 7.5
2014-Oct-28 05:32N 40°58' W 073°54'8 7.6
2014-Oct-28 04:33N 41°06' W 073°53'20 0.8
2014-Oct-27 04:33N 40°47' W 073°60'8 8.2
2014-Oct-27 03:33N 40°39' W 074°04'2 2.0
2014-Oct-27 02:33N 40°39' W 074°07'0 0.0
2014-Oct-27 01:33N 40°39' W 074°07'0 0.0
2014-Oct-27 00:34N 40°39' W 074°07'0 0.0
2014-Oct-26 23:33N 40°39' W 074°07'0 0.0
2014-Oct-26 22:33N 40°39' W 074°07'0 0.0
2014-Oct-26 21:31N 40°39' W 074°07'0 0.0
2014-Oct-26 20:32N 40°39' W 074°07'0 0.0
2014-Oct-26 19:33N 40°39' W 074°07'0 0.0
2014-Oct-26 18:33N 40°39' W 074°07'0 0.0
2014-Oct-26 17:33N 40°39' W 074°07'0 0.0
2014-Oct-26 16:33N 40°39' W 074°07'0 0.0
2014-Oct-26 15:33N 40°39' W 074°07'0 0.0
2014-Oct-26 14:33N 40°39' W 074°07'0 0.0
2014-Oct-26 13:31N 40°39' W 074°07'1 0.7
2014-Oct-26 12:33N 40°39' W 074°06'8 7.6
2014-Oct-26 11:33N 40°45' W 074°01'13 0.6
2014-Oct-25 13:21N 40°58' W 073°54'8 9.4
2014-Oct-25 12:28N 40°50' W 073°58'8 8.7
2014-Oct-25 11:33N 40°43' W 074°02'6 6.1
2014-Oct-25 10:33N 40°39' W 074°07'5 4.7
2014-Oct-25 09:33N 40°36' W 074°12'1 0.5
2014-Oct-25 08:33N 40°35' W 074°13'0 0.0
2014-Oct-25 07:26N 40°35' W 074°13'0 0.0
2014-Oct-25 06:32N 40°35' W 074°13'0 0.1
2014-Oct-25 05:20N 40°35' W 074°13'4 4.4
2014-Oct-25 04:28N 40°32' W 074°15'0 0.0
2014-Oct-25 03:27N 40°32' W 074°15'3 1.6
2014-Oct-25 01:29N 40°34' W 074°13'2 0.4
2014-Oct-24 20:24N 40°33' W 074°15'1 0.5
2014-Oct-24 18:25N 40°32' W 074°15'0 0.0
2014-Oct-24 16:17N 40°32' W 074°15'0 0.0
2014-Oct-24 09:08N 40°32' W 074°15'0 0.0
2014-Oct-24 05:21N 40°32' W 074°15'0 0.0
2014-Oct-24 03:28N 40°32' W 074°15'0 0.0
2014-Oct-23 23:04N 40°32' W 074°15'0 0.0
2014-Oct-23 22:27N 40°32' W 074°15'0 0.0
2014-Oct-23 19:28N 40°32' W 074°15'0 0.0
2014-Oct-23 17:32N 40°32' W 074°15'0 0.0
2014-Oct-23 11:32N 40°32' W 074°15'0 0.0
2014-Oct-23 08:28N 40°32' W 074°15'0 0.0
2014-Oct-23 00:19N 40°32' W 074°15'0 0.0
2014-Oct-22 22:13N 40°32' W 074°15'0 0.0
2014-Oct-22 21:29N 40°32' W 074°15'0 0.0
2014-Oct-22 18:16N 40°32' W 074°15'0 0.0
2014-Oct-22 17:08N 40°32' W 074°15'0 0.0
2014-Oct-22 16:16N 40°32' W 074°15'1 1.4
2014-Oct-22 15:33N 40°33' W 074°15'3 3.3
2014-Oct-22 14:33N 40°36' W 074°12'6 6.2
2014-Oct-22 13:33N 40°39' W 074°05'7 7.2
2014-Oct-22 12:33N 40°44' W 073°58'12 6.0
2014-Oct-22 10:30N 40°51' W 073°45'  
Track history (hours):
 
Tides and Currents Weather Stations Pressure Air Temp Water Temp Dewpoint Dewpoint Depression Visibility Wind Speed Wind Dir Waves Ship Positions

Quenames

Owner: BOSTON MARINE TRANSPORT INC, EAST BOSTON, MA. More information available from US FCC via Universal Licensing System and Coast Guard Vessel Documentation Center.

Last reported at 2014-Nov-01 10:26 UTC. Time now 2014-Nov-01 13:51 UTC.
Position N 40°36' W 074°12'.

Length 23 m.

Type: Tug. MMSI: 367022790.

Date/timePositionNaut miles runAvg speedWind from/ knotsBaromVisibWave heightAir tempDewpointWater temp
2014-Nov-01 10:26N 40°36' W 074°12'0 0.0
2014-Nov-01 09:29N 40°36' W 074°12'3 1.1
2014-Nov-01 06:27N 40°33' W 074°15'0 0.0
2014-Nov-01 02:26N 40°33' W 074°15'0 0.0
2014-Oct-31 23:28N 40°33' W 074°15'0 0.0
2014-Oct-31 15:30N 40°33' W 074°15'0 0.0
2014-Oct-31 14:24N 40°33' W 074°15'0 0.0
2014-Oct-31 12:32N 40°33' W 074°15'3 0.7
2014-Oct-31 07:33N 40°36' W 074°12'3 2.7
2014-Oct-31 06:33N 40°38' W 074°12'0 0.0
2014-Oct-31 05:33N 40°38' W 074°12'0 0.0
2014-Oct-31 04:33N 40°38' W 074°12'0 0.0
2014-Oct-31 03:33N 40°38' W 074°12'0 0.0
2014-Oct-31 02:33N 40°38' W 074°12'0 0.0
2014-Oct-31 01:33N 40°38' W 074°12'0 0.0
2014-Oct-31 00:08N 40°38' W 074°12'0 0.0
2014-Oct-30 23:31N 40°38' W 074°12'0 0.0
2014-Oct-30 22:33N 40°38' W 074°12'0 0.0
2014-Oct-30 21:33N 40°38' W 074°12'0 0.0
2014-Oct-30 20:33N 40°38' W 074°12'0 0.0
2014-Oct-30 19:33N 40°38' W 074°12'4 2.7
2014-Oct-30 18:07N 40°39' W 074°07'0 0.0
2014-Oct-30 16:30N 40°39' W 074°07'4 4.1
2014-Oct-30 15:33N 40°38' W 074°12'3 1.1
2014-Oct-30 13:12N 40°36' W 074°12'4 6.6
2014-Oct-30 12:33N 40°39' W 074°08'9 8.7
2014-Oct-30 11:33N 40°45' W 074°01'4 0.2
2014-Oct-29 12:32N 40°49' W 073°58'6 5.8
2014-Oct-29 11:33N 40°43' W 074°01'6 5.7
2014-Oct-29 10:33N 40°39' W 074°06'0 0.5
2014-Oct-29 09:33N 40°39' W 074°06'0 0.0
2014-Oct-29 08:33N 40°39' W 074°06'0 0.0
2014-Oct-29 07:33N 40°39' W 074°06'0 0.0
2014-Oct-29 06:33N 40°39' W 074°06'0 0.0
2014-Oct-29 05:33N 40°39' W 074°06'0 0.0
2014-Oct-29 04:33N 40°39' W 074°06'0 0.0
2014-Oct-29 03:33N 40°39' W 074°06'0 0.0
2014-Oct-29 02:33N 40°39' W 074°06'0 0.0
2014-Oct-29 01:33N 40°39' W 074°06'0 0.0
2014-Oct-29 00:33N 40°39' W 074°06'0 0.0
2014-Oct-28 23:32N 40°39' W 074°06'0 0.0
2014-Oct-28 22:33N 40°39' W 074°06'0 0.0
2014-Oct-28 21:33N 40°39' W 074°06'0 0.0
2014-Oct-28 20:33N 40°39' W 074°06'0 0.0
2014-Oct-28 19:33N 40°39' W 074°06'0 0.0
2014-Oct-28 18:33N 40°39' W 074°06'0 0.0
2014-Oct-28 17:22N 40°39' W 074°06'0 0.0
2014-Oct-28 16:33N 40°39' W 074°06'0 0.0
2014-Oct-28 15:33N 40°39' W 074°06'0 0.0
2014-Oct-28 14:33N 40°39' W 074°06'0 0.0
2014-Oct-28 13:33N 40°39' W 074°06'0 0.0
2014-Oct-28 12:33N 40°39' W 074°06'0 0.0
2014-Oct-28 11:33N 40°39' W 074°06'0 0.0
2014-Oct-28 10:32N 40°39' W 074°06'0 0.0
2014-Oct-28 09:32N 40°39' W 074°06'3 2.6
2014-Oct-28 08:34N 40°39' W 074°03'6 6.0
2014-Oct-28 07:33N 40°44' W 074°01'7 7.2
2014-Oct-28 06:33N 40°51' W 073°57'8 7.5
2014-Oct-28 05:32N 40°58' W 073°54'8 7.6
2014-Oct-28 04:33N 41°06' W 073°53'20 0.8
2014-Oct-27 04:33N 40°47' W 073°60'8 8.2
2014-Oct-27 03:33N 40°39' W 074°04'2 2.0
2014-Oct-27 02:33N 40°39' W 074°07'0 0.0
2014-Oct-27 01:33N 40°39' W 074°07'0 0.0
2014-Oct-27 00:34N 40°39' W 074°07'0 0.0
2014-Oct-26 23:33N 40°39' W 074°07'0 0.0
2014-Oct-26 22:33N 40°39' W 074°07'0 0.0
2014-Oct-26 21:31N 40°39' W 074°07'0 0.0
2014-Oct-26 20:32N 40°39' W 074°07'0 0.0
2014-Oct-26 19:33N 40°39' W 074°07'0 0.0
2014-Oct-26 18:33N 40°39' W 074°07'0 0.0
2014-Oct-26 17:33N 40°39' W 074°07'0 0.0
2014-Oct-26 16:33N 40°39' W 074°07'0 0.0
2014-Oct-26 15:33N 40°39' W 074°07'0 0.0
2014-Oct-26 14:33N 40°39' W 074°07'0 0.0
2014-Oct-26 13:31N 40°39' W 074°07'1 0.7
2014-Oct-26 12:33N 40°39' W 074°06'8 7.6
2014-Oct-26 11:33N 40°45' W 074°01'13 0.6
2014-Oct-25 13:21N 40°58' W 073°54'8 9.4
2014-Oct-25 12:28N 40°50' W 073°58'8 8.7
2014-Oct-25 11:33N 40°43' W 074°02'6 6.1
2014-Oct-25 10:33N 40°39' W 074°07'5 4.7
2014-Oct-25 09:33N 40°36' W 074°12'1 0.5
2014-Oct-25 08:33N 40°35' W 074°13'0 0.0
2014-Oct-25 07:26N 40°35' W 074°13'0 0.0
2014-Oct-25 06:32N 40°35' W 074°13'0 0.1
2014-Oct-25 05:20N 40°35' W 074°13'4 4.4
2014-Oct-25 04:28N 40°32' W 074°15'0 0.0
2014-Oct-25 03:27N 40°32' W 074°15'3 1.6
2014-Oct-25 01:29N 40°34' W 074°13'2 0.4
2014-Oct-24 20:24N 40°33' W 074°15'1 0.5
2014-Oct-24 18:25N 40°32' W 074°15'0 0.0
2014-Oct-24 16:17N 40°32' W 074°15'0 0.0
2014-Oct-24 09:08N 40°32' W 074°15'0 0.0
2014-Oct-24 05:21N 40°32' W 074°15'0 0.0
2014-Oct-24 03:28N 40°32' W 074°15'0 0.0
2014-Oct-23 23:04N 40°32' W 074°15'0 0.0
2014-Oct-23 22:27N 40°32' W 074°15'0 0.0
2014-Oct-23 19:28N 40°32' W 074°15'0 0.0
2014-Oct-23 17:32N 40°32' W 074°15'0 0.0
2014-Oct-23 11:32N 40°32' W 074°15'0 0.0
2014-Oct-23 08:28N 40°32' W 074°15'0 0.0
2014-Oct-23 00:19N 40°32' W 074°15'0 0.0
2014-Oct-22 22:13N 40°32' W 074°15'0 0.0
2014-Oct-22 21:29N 40°32' W 074°15'0 0.0
2014-Oct-22 18:16N 40°32' W 074°15'0 0.0
2014-Oct-22 17:08N 40°32' W 074°15'0 0.0
2014-Oct-22 16:16N 40°32' W 074°15'1 1.4
2014-Oct-22 15:33N 40°33' W 074°15'3 3.3
2014-Oct-22 14:33N 40°36' W 074°12'6 6.2
2014-Oct-22 13:33N 40°39' W 074°05'7 7.2
2014-Oct-22 12:33N 40°44' W 073°58'12 6.0
2014-Oct-22 10:30N 40°51' W 073°45'  

Dump ship's entire track history